createdAt,value
2022-07-25T00:00:56.192Z,15
2022-07-25T00:01:56.825Z,15
2022-07-25T00:02:56.246Z,15
2022-07-25T00:03:56.604Z,14
2022-07-25T00:04:56.251Z,13
2022-07-25T00:05:56.208Z,13
2022-07-25T00:06:56.190Z,14
2022-07-25T00:08:56.184Z,15
2022-07-25T00:09:56.199Z,13
2022-07-25T00:10:56.192Z,12
2022-07-25T00:12:56.182Z,16
2022-07-25T00:13:56.195Z,15
2022-07-25T00:14:56.195Z,13
2022-07-25T00:15:56.307Z,14
2022-07-25T00:16:56.184Z,16
2022-07-25T00:17:56.189Z,13
2022-07-25T00:19:56.219Z,14
2022-07-25T00:20:56.216Z,16
2022-07-25T00:21:56.195Z,14
2022-07-25T00:22:56.190Z,13
2022-07-25T00:23:56.215Z,14
2022-07-25T00:25:56.197Z,15
2022-07-25T00:26:56.194Z,16
2022-07-25T00:27:56.195Z,15
2022-07-25T00:28:56.192Z,13
2022-07-25T00:29:56.194Z,14
2022-07-25T00:31:56.198Z,14
2022-07-25T00:32:56.197Z,15
2022-07-25T00:33:56.191Z,13
2022-07-25T00:34:56.193Z,14
2022-07-25T00:36:56.237Z,15
2022-07-25T00:37:56.242Z,15
2022-07-25T00:38:56.211Z,14
2022-07-25T00:40:56.199Z,15
2022-07-25T00:41:56.205Z,15
2022-07-25T00:42:56.203Z,13
2022-07-25T00:43:56.200Z,14
2022-07-25T00:44:56.201Z,16
2022-07-25T00:45:56.261Z,14
2022-07-25T00:46:56.306Z,15
2022-07-25T00:47:56.270Z,14
2022-07-25T00:48:56.236Z,14
2022-07-25T00:49:56.205Z,14
2022-07-25T00:50:56.209Z,13
2022-07-25T00:51:56.214Z,16
2022-07-25T00:52:56.204Z,15
2022-07-25T00:53:56.212Z,15
2022-07-25T00:54:56.207Z,15
2022-07-25T00:55:56.210Z,13
2022-07-25T00:57:56.219Z,14
2022-07-25T00:58:56.211Z,16
2022-07-25T00:59:56.204Z,15
2022-07-25T01:01:56.316Z,14
2022-07-25T01:02:56.305Z,16
2022-07-25T01:03:56.214Z,15
2022-07-25T01:04:56.218Z,15
2022-07-25T01:05:56.223Z,14
2022-07-25T01:06:56.205Z,13
2022-07-25T01:07:56.212Z,14
2022-07-25T01:08:56.211Z,15
2022-07-25T01:10:56.217Z,15
2022-07-25T01:11:56.219Z,14
2022-07-25T01:12:56.209Z,14
2022-07-25T01:14:56.220Z,13
2022-07-25T01:15:56.340Z,15
2022-07-25T01:16:56.222Z,15
2022-07-25T01:18:56.224Z,14
2022-07-25T01:19:56.216Z,16
2022-07-25T01:20:56.212Z,15
2022-07-25T01:22:56.225Z,15
2022-07-25T01:23:56.222Z,14
2022-07-25T01:24:56.215Z,15
2022-07-25T01:25:56.225Z,14
2022-07-25T01:26:56.229Z,15
2022-07-25T01:27:56.368Z,16
2022-07-25T01:28:56.220Z,16
2022-07-25T01:29:56.226Z,15
2022-07-25T01:30:56.312Z,15
2022-07-25T01:31:56.225Z,14
2022-07-25T01:32:56.220Z,15
2022-07-25T01:33:57.244Z,16
2022-07-25T01:35:56.219Z,16
2022-07-25T01:36:56.219Z,14
2022-07-25T01:37:56.220Z,15
2022-07-25T01:39:56.240Z,17
2022-07-25T01:40:56.224Z,15
2022-07-25T01:41:56.223Z,15
2022-07-25T01:43:56.225Z,15
2022-07-25T01:44:56.238Z,15
2022-07-25T01:45:56.270Z,15
2022-07-25T01:46:56.229Z,15
2022-07-25T01:47:56.230Z,16
2022-07-25T01:48:56.318Z,14
2022-07-25T01:49:56.230Z,15
2022-07-25T01:50:56.235Z,15
2022-07-25T01:52:56.235Z,15
2022-07-25T01:53:56.234Z,17
2022-07-25T01:54:56.466Z,15
2022-07-25T01:56:56.233Z,15
2022-07-25T01:57:56.237Z,14
2022-07-25T01:58:56.239Z,15
2022-07-25T02:00:56.447Z,15
2022-07-25T02:01:56.304Z,15
2022-07-25T02:02:56.294Z,15
2022-07-25T02:04:56.281Z,17
2022-07-25T02:05:56.252Z,14
2022-07-25T02:06:56.255Z,14
2022-07-25T02:07:56.237Z,14
2022-07-25T02:08:56.243Z,15
2022-07-25T02:09:56.972Z,13
2022-07-25T02:10:56.248Z,15
2022-07-25T02:11:56.265Z,14
2022-07-25T02:12:56.239Z,17
2022-07-25T02:13:56.235Z,14
2022-07-25T02:14:56.227Z,17
2022-07-25T02:15:56.238Z,14
2022-07-25T02:17:56.300Z,15
2022-07-25T02:18:56.242Z,13
2022-07-25T02:19:56.237Z,15
2022-07-25T02:20:56.238Z,15
2022-07-25T02:21:56.251Z,14
2022-07-25T02:22:56.242Z,13
2022-07-25T02:23:56.234Z,14
2022-07-25T02:25:56.244Z,15
2022-07-25T02:26:56.255Z,16
2022-07-25T02:27:56.253Z,15
2022-07-25T02:28:56.252Z,13
2022-07-25T02:29:56.245Z,14
2022-07-25T02:31:56.246Z,14
2022-07-25T02:32:56.236Z,13
2022-07-25T02:33:56.254Z,14
2022-07-25T02:34:56.248Z,17
2022-07-25T02:35:56.243Z,14
2022-07-25T02:36:56.247Z,16
2022-07-25T02:38:56.247Z,14
2022-07-25T02:39:56.249Z,15
2022-07-25T02:40:56.276Z,12
2022-07-25T02:41:56.261Z,16
2022-07-25T02:42:56.260Z,14
2022-07-25T02:43:56.247Z,15
2022-07-25T02:44:56.258Z,16
2022-07-25T02:45:56.298Z,14
2022-07-25T02:46:56.255Z,15
2022-07-25T02:48:56.349Z,16
2022-07-25T02:49:56.265Z,17
2022-07-25T02:50:56.259Z,13
2022-07-25T02:51:56.251Z,14
2022-07-25T02:52:56.255Z,16
2022-07-25T02:53:58.202Z,13
2022-07-25T02:54:56.260Z,12
2022-07-25T02:55:56.259Z,13
2022-07-25T02:57:56.261Z,13
2022-07-25T02:58:56.260Z,14
2022-07-25T02:59:56.257Z,16
2022-07-25T03:00:56.288Z,14
2022-07-25T03:01:56.253Z,12
2022-07-25T03:02:56.258Z,13
2022-07-25T03:03:56.387Z,14
2022-07-25T03:04:56.258Z,14
2022-07-25T03:05:56.264Z,13
2022-07-25T03:06:56.262Z,13
2022-07-25T03:07:56.254Z,14
2022-07-25T03:09:56.262Z,14
2022-07-25T03:10:56.260Z,15
2022-07-25T03:11:56.278Z,14
2022-07-25T03:12:56.265Z,13
2022-07-25T03:13:56.255Z,14
2022-07-25T03:14:56.265Z,12
2022-07-25T03:15:56.268Z,14
2022-07-25T03:16:56.320Z,13
2022-07-25T03:18:56.257Z,16
2022-07-25T03:19:56.266Z,14
2022-07-25T03:20:56.267Z,15
2022-07-25T03:22:56.321Z,14
2022-07-25T03:23:56.257Z,14
2022-07-25T03:24:56.260Z,15
2022-07-25T03:25:56.274Z,15
2022-07-25T03:26:56.272Z,15
2022-07-25T03:27:56.258Z,15
2022-07-25T03:28:56.269Z,13
2022-07-25T03:30:56.268Z,14
2022-07-25T03:31:56.469Z,14
2022-07-25T03:32:56.267Z,13
2022-07-25T03:33:56.260Z,13
2022-07-25T03:34:56.275Z,16
2022-07-25T03:35:56.271Z,16
2022-07-25T03:36:56.265Z,13
2022-07-25T03:37:56.271Z,14
2022-07-25T03:38:56.269Z,15
2022-07-25T03:39:56.272Z,15
2022-07-25T03:40:56.283Z,14
2022-07-25T03:41:56.278Z,13
2022-07-25T03:43:56.274Z,13
2022-07-25T03:44:56.279Z,15
2022-07-25T03:45:56.358Z,14
2022-07-25T03:46:56.274Z,15
2022-07-25T03:47:56.645Z,13
2022-07-25T03:48:56.352Z,14
2022-07-25T03:52:56.330Z,13
2022-07-25T03:53:56.279Z,14
2022-07-25T03:54:56.275Z,15
2022-07-25T03:55:56.282Z,15
2022-07-25T03:56:56.289Z,15
2022-07-25T03:57:56.295Z,15
2022-07-25T03:58:56.276Z,15
2022-07-25T03:59:56.283Z,16
2022-07-25T04:00:56.426Z,13
2022-07-25T04:02:56.349Z,16
2022-07-25T04:03:56.284Z,15
2022-07-25T04:04:56.276Z,13
2022-07-25T04:05:56.281Z,16
2022-07-25T04:06:56.280Z,17
2022-07-25T04:07:56.286Z,14
2022-07-25T04:08:56.281Z,15
2022-07-25T04:09:56.284Z,17
2022-07-25T04:11:56.288Z,14
2022-07-25T04:12:56.287Z,18
2022-07-25T04:13:56.283Z,14
2022-07-25T04:14:56.287Z,13
2022-07-25T04:15:56.283Z,13
2022-07-25T04:16:56.355Z,16
2022-07-25T04:17:56.290Z,15
2022-07-25T04:18:56.339Z,14
2022-07-25T04:19:56.287Z,16
2022-07-25T04:20:56.286Z,15
2022-07-25T04:21:56.289Z,15
2022-07-25T04:23:56.283Z,15
2022-07-25T04:24:56.278Z,16
2022-07-25T04:25:56.291Z,15
2022-07-25T04:26:56.288Z,13
2022-07-25T04:27:56.286Z,15
2022-07-25T04:28:56.294Z,12
2022-07-25T04:29:56.291Z,16
2022-07-25T04:32:56.294Z,16
2022-07-25T04:33:56.287Z,16
2022-07-25T04:34:56.295Z,16
2022-07-25T04:35:56.286Z,15
2022-07-25T04:36:56.291Z,16
2022-07-25T04:37:56.294Z,14
2022-07-25T04:38:56.295Z,13
2022-07-25T04:39:56.305Z,12
2022-07-25T04:40:56.306Z,13
2022-07-25T04:41:56.291Z,14
2022-07-25T04:42:56.298Z,16
2022-07-25T04:44:56.294Z,13
2022-07-25T04:45:56.420Z,12
2022-07-25T04:46:56.290Z,15
2022-07-25T04:47:56.286Z,14
2022-07-25T04:48:56.329Z,15
2022-07-25T04:49:56.289Z,15
2022-07-25T04:50:56.295Z,14
2022-07-25T04:51:56.294Z,13
2022-07-25T04:52:56.291Z,13
2022-07-25T04:53:56.300Z,12
2022-07-25T04:54:56.309Z,13
2022-07-25T04:55:56.295Z,14
2022-07-25T04:56:56.297Z,13
2022-07-25T04:57:56.294Z,14
2022-07-25T04:58:56.297Z,13
2022-07-25T04:59:56.303Z,13
2022-07-25T05:00:56.400Z,14
2022-07-25T05:01:56.340Z,14
2022-07-25T05:02:56.297Z,14
2022-07-25T05:05:56.294Z,12
2022-07-25T05:06:56.308Z,13
2022-07-25T05:07:56.306Z,13
2022-07-25T05:08:56.305Z,12
2022-07-25T05:09:56.320Z,15
2022-07-25T05:10:56.310Z,12
2022-07-25T05:11:56.566Z,14
2022-07-25T05:12:56.302Z,14
2022-07-25T05:13:56.910Z,12
2022-07-25T05:14:56.301Z,13
2022-07-25T05:15:56.418Z,13
2022-07-25T05:16:56.482Z,11
2022-07-25T05:17:56.311Z,13
2022-07-25T05:18:56.309Z,13
2022-07-25T05:19:56.554Z,13
2022-07-25T05:20:56.312Z,12
2022-07-25T05:21:56.313Z,16
2022-07-25T05:22:56.306Z,15
2022-07-25T05:24:56.328Z,14
2022-07-25T05:26:56.312Z,13
2022-07-25T05:27:56.312Z,13
2022-07-25T05:28:56.318Z,15
2022-07-25T05:29:56.309Z,14
2022-07-25T05:30:56.327Z,13
2022-07-25T05:31:56.386Z,14
2022-07-25T05:32:56.317Z,13
2022-07-25T05:33:56.314Z,14
2022-07-25T05:34:56.310Z,12
2022-07-25T05:35:56.320Z,14
2022-07-25T05:36:56.316Z,13
2022-07-25T05:37:56.331Z,11
2022-07-25T05:38:56.315Z,11
2022-07-25T05:39:56.325Z,12
2022-07-25T05:40:56.320Z,12
2022-07-25T05:41:56.324Z,15
2022-07-25T05:43:00.975Z,17
2022-07-25T05:43:56.317Z,12
2022-07-25T05:44:56.337Z,13
2022-07-25T05:45:56.320Z,12
2022-07-25T05:47:56.319Z,13
2022-07-25T05:48:56.365Z,12
2022-07-25T05:49:56.321Z,13
2022-07-25T05:50:56.324Z,11
2022-07-25T05:52:56.319Z,11
2022-07-25T05:53:56.316Z,11
2022-07-25T05:54:56.320Z,12
2022-07-25T05:55:56.328Z,12
2022-07-25T05:56:56.343Z,12
2022-07-25T05:57:56.330Z,14
2022-07-25T05:58:56.323Z,15
2022-07-25T05:59:56.323Z,12
2022-07-25T06:00:56.327Z,15
2022-07-25T06:01:56.459Z,11
2022-07-25T06:02:56.523Z,10
2022-07-25T06:03:56.335Z,12
2022-07-25T06:04:56.332Z,13
2022-07-25T06:05:56.345Z,11
2022-07-25T06:06:56.330Z,12
2022-07-25T06:08:56.323Z,11
2022-07-25T06:09:56.338Z,10
2022-07-25T06:10:56.326Z,11
2022-07-25T06:12:00.532Z,11
2022-07-25T06:12:56.352Z,12
2022-07-25T06:14:56.329Z,11
2022-07-25T06:15:56.399Z,11
2022-07-25T06:16:56.338Z,14
2022-07-25T06:17:56.329Z,12
2022-07-25T06:18:56.337Z,13
2022-07-25T06:19:56.338Z,12
2022-07-25T06:20:56.340Z,12
2022-07-25T06:21:56.345Z,14
2022-07-25T06:22:56.333Z,13
2022-07-25T06:24:56.345Z,12
2022-07-25T06:25:56.330Z,15
2022-07-25T06:26:56.341Z,15
2022-07-25T06:27:56.345Z,11
2022-07-25T06:29:56.340Z,13
2022-07-25T06:31:56.462Z,13
2022-07-25T06:32:56.351Z,13
2022-07-25T06:33:56.338Z,12
2022-07-25T06:34:56.350Z,15
2022-07-25T06:35:56.340Z,13
2022-07-25T06:36:56.337Z,13
2022-07-25T06:37:56.350Z,12
2022-07-25T06:38:56.368Z,11
2022-07-25T06:39:56.361Z,15
2022-07-25T06:40:56.339Z,12
2022-07-25T06:41:56.354Z,12
2022-07-25T06:42:56.355Z,11
2022-07-25T06:43:56.361Z,11
2022-07-25T06:44:56.345Z,14
2022-07-25T06:45:56.346Z,13
2022-07-25T06:46:56.412Z,14
2022-07-25T06:47:56.352Z,11
2022-07-25T06:48:56.372Z,10
2022-07-25T06:50:56.348Z,12
2022-07-25T06:51:56.353Z,10
2022-07-25T06:52:56.362Z,11
2022-07-25T06:53:56.363Z,11
2022-07-25T06:54:56.353Z,10
2022-07-25T06:56:56.351Z,12
2022-07-25T06:57:56.351Z,12
2022-07-25T06:58:56.351Z,11
2022-07-25T06:59:56.351Z,11
2022-07-25T07:00:56.448Z,11
2022-07-25T07:01:56.348Z,10
2022-07-25T07:03:56.352Z,11
2022-07-25T07:04:56.355Z,12
2022-07-25T07:05:56.359Z,12
2022-07-25T07:06:56.359Z,10
2022-07-25T07:07:56.354Z,11
2022-07-25T07:08:56.375Z,11
2022-07-25T07:11:56.359Z,10
2022-07-25T07:13:56.359Z,12
2022-07-25T07:14:56.359Z,10
2022-07-25T07:15:56.388Z,11
2022-07-25T07:16:56.368Z,12
2022-07-25T07:17:56.359Z,11
2022-07-25T07:18:56.375Z,11
2022-07-25T07:19:56.356Z,11
2022-07-25T07:20:56.366Z,12
2022-07-25T07:22:56.366Z,13
2022-07-25T07:23:56.983Z,12
2022-07-25T07:24:56.366Z,12
2022-07-25T07:25:56.377Z,11
2022-07-25T07:26:56.368Z,11
2022-07-25T07:27:56.381Z,12
2022-07-25T07:28:56.364Z,11
2022-07-25T07:31:15.863Z,11
2022-07-25T07:31:56.450Z,11
2022-07-25T07:32:56.370Z,14
2022-07-25T07:33:56.361Z,11
2022-07-25T07:34:56.366Z,11
2022-07-25T07:35:56.371Z,11
2022-07-25T07:36:56.373Z,10
2022-07-25T07:37:56.403Z,13
2022-07-25T07:38:56.371Z,12
2022-07-25T07:39:56.371Z,12
2022-07-25T07:40:56.371Z,12
2022-07-25T07:41:56.373Z,11
2022-07-25T07:43:56.369Z,11
2022-07-25T07:44:56.364Z,12
2022-07-25T07:45:56.368Z,12
2022-07-25T07:46:56.482Z,10
2022-07-25T07:47:56.377Z,12
2022-07-25T07:48:56.455Z,13
2022-07-25T07:49:56.367Z,11
2022-07-25T07:50:56.377Z,10
2022-07-25T07:53:56.379Z,13
2022-07-25T07:54:59.339Z,13
2022-07-25T07:55:57.195Z,10
2022-07-25T07:56:56.372Z,11
2022-07-25T07:57:56.389Z,12
2022-07-25T07:58:56.386Z,11
2022-07-25T07:59:56.442Z,11
2022-07-25T08:00:56.384Z,11
2022-07-25T08:01:56.474Z,11
2022-07-25T08:02:56.483Z,12
2022-07-25T08:03:56.385Z,11
2022-07-25T08:04:56.385Z,12
2022-07-25T08:06:56.382Z,11
2022-07-25T08:07:56.377Z,11
2022-07-25T08:08:56.412Z,11
2022-07-25T08:09:56.389Z,12
2022-07-25T08:10:58.974Z,11
2022-07-25T08:11:56.384Z,12
2022-07-25T08:12:56.389Z,13
2022-07-25T08:14:56.389Z,15
2022-07-25T08:15:56.449Z,11
2022-07-25T08:16:56.433Z,12
2022-07-25T08:17:56.392Z,14
2022-07-25T08:18:56.389Z,13
2022-07-25T08:20:05.511Z,11
2022-07-25T08:20:56.397Z,11
2022-07-25T08:21:56.395Z,14
2022-07-25T08:22:56.783Z,13
2022-07-25T08:23:56.391Z,13
2022-07-25T08:24:56.394Z,14
2022-07-25T08:25:56.394Z,13
2022-07-25T08:27:56.396Z,12
2022-07-25T08:29:17.590Z,14
2022-07-25T08:29:56.407Z,14
2022-07-25T08:31:56.412Z,13
2022-07-25T08:32:56.395Z,16
2022-07-25T08:33:56.390Z,16
2022-07-25T08:34:56.403Z,13
2022-07-25T08:35:56.429Z,15
2022-07-25T08:36:56.397Z,12
2022-07-25T08:37:56.406Z,13
2022-07-25T08:38:56.394Z,11
2022-07-25T08:39:56.405Z,13
2022-07-25T08:40:56.409Z,14
2022-07-25T08:41:56.397Z,13
2022-07-25T08:42:56.406Z,11
2022-07-25T08:43:56.404Z,11
2022-07-25T08:44:56.417Z,11
2022-07-25T08:46:56.506Z,11
2022-07-25T08:47:56.441Z,15
2022-07-25T08:48:56.531Z,12
2022-07-25T08:50:00.868Z,12
2022-07-25T08:50:56.401Z,12
2022-07-25T08:53:10.328Z,12
2022-07-25T08:53:56.447Z,12
2022-07-25T08:54:56.401Z,12
2022-07-25T08:55:56.410Z,10
2022-07-25T08:56:56.415Z,11
2022-07-25T08:57:56.425Z,11
2022-07-25T08:58:56.472Z,11
2022-07-25T08:59:56.429Z,12
2022-07-25T09:00:56.411Z,12
2022-07-25T09:01:56.477Z,14
2022-07-25T09:02:56.480Z,11
2022-07-25T09:03:56.418Z,13
2022-07-25T09:04:56.424Z,12
2022-07-25T09:05:56.403Z,16
2022-07-25T09:07:56.461Z,11
2022-07-25T09:08:56.439Z,13
2022-07-25T09:09:56.412Z,16
2022-07-25T09:10:56.406Z,12
2022-07-25T09:11:56.429Z,12
2022-07-25T09:13:56.409Z,13
2022-07-25T09:14:56.410Z,14
2022-07-25T09:15:56.524Z,11
2022-07-25T09:16:56.417Z,13
2022-07-25T09:17:56.446Z,12
2022-07-25T09:18:56.411Z,13
2022-07-25T09:19:56.419Z,13
2022-07-25T09:20:56.499Z,13
2022-07-25T09:21:56.406Z,13
2022-07-25T09:22:56.421Z,13
2022-07-25T09:23:56.427Z,11
2022-07-25T09:24:56.418Z,12
2022-07-25T09:25:56.422Z,12
2022-07-25T09:26:56.428Z,15
2022-07-25T09:28:56.422Z,12
2022-07-25T09:29:56.425Z,12
2022-07-25T09:30:56.526Z,13
2022-07-25T09:31:56.424Z,11
2022-07-25T09:32:56.417Z,14
2022-07-25T09:33:56.502Z,12
2022-07-25T09:34:56.421Z,12
2022-07-25T09:35:56.461Z,13
2022-07-25T09:37:56.420Z,14
2022-07-25T09:38:56.428Z,13
2022-07-25T09:39:56.424Z,12
2022-07-25T09:40:56.435Z,13
2022-07-25T09:41:56.428Z,13
2022-07-25T09:42:56.424Z,12
2022-07-25T09:43:56.429Z,11
2022-07-25T09:44:56.432Z,12
2022-07-25T09:45:56.511Z,14
2022-07-25T09:46:56.426Z,14
2022-07-25T09:47:56.446Z,16
2022-07-25T09:49:56.432Z,11
2022-07-25T09:50:56.437Z,12
2022-07-25T09:52:56.472Z,11
2022-07-25T09:53:56.437Z,12
2022-07-25T09:54:56.432Z,13
2022-07-25T09:55:56.435Z,11
2022-07-25T09:56:56.437Z,12
2022-07-25T09:57:56.435Z,13
2022-07-25T09:58:56.434Z,12
2022-07-25T09:59:56.443Z,13
2022-07-25T10:00:56.445Z,12
2022-07-25T10:01:56.533Z,12
2022-07-25T10:02:56.587Z,13
2022-07-25T10:03:56.443Z,18
2022-07-25T10:04:56.431Z,16
2022-07-25T10:05:56.462Z,13
2022-07-25T10:06:56.439Z,12
2022-07-25T10:08:56.434Z,15
2022-07-25T10:09:56.486Z,12
2022-07-25T10:10:56.451Z,16
2022-07-25T10:11:56.448Z,14
2022-07-25T10:12:56.436Z,12
2022-07-25T10:13:56.441Z,13
2022-07-25T10:14:56.440Z,13
2022-07-25T10:15:56.443Z,13
2022-07-25T10:16:56.549Z,13
2022-07-25T10:17:56.470Z,13
2022-07-25T10:18:56.451Z,12
2022-07-25T10:19:58.848Z,12
2022-07-25T10:20:56.452Z,12
2022-07-25T10:21:56.438Z,12
2022-07-25T10:23:56.447Z,11
2022-07-25T10:24:56.451Z,12
2022-07-25T10:25:56.456Z,12
2022-07-25T10:26:56.448Z,11
2022-07-25T10:27:56.443Z,10
2022-07-25T10:28:56.446Z,13
2022-07-25T10:29:56.450Z,11
2022-07-25T10:31:56.453Z,14
2022-07-25T10:32:56.461Z,12
2022-07-25T10:33:56.453Z,11
2022-07-25T10:34:56.447Z,16
2022-07-25T10:35:56.456Z,13
2022-07-25T10:37:56.467Z,12
2022-07-25T10:38:56.453Z,11
2022-07-25T10:39:56.462Z,13
2022-07-25T10:40:56.454Z,12
2022-07-25T10:41:56.505Z,11
2022-07-25T10:42:56.458Z,11
2022-07-25T10:44:56.477Z,13
2022-07-25T10:45:56.528Z,15
2022-07-25T10:46:56.527Z,12
2022-07-25T10:47:56.706Z,9
2022-07-25T10:48:56.528Z,12
2022-07-25T10:50:40.244Z,10
2022-07-25T10:50:57.014Z,12
2022-07-25T10:52:56.463Z,13
2022-07-25T10:53:56.457Z,10
2022-07-25T10:54:56.477Z,10
2022-07-25T10:56:05.646Z,9
2022-07-25T10:56:56.464Z,10
2022-07-25T10:58:16.569Z,12
2022-07-25T10:58:56.518Z,12
2022-07-25T10:59:56.463Z,9
2022-07-25T11:00:56.513Z,13
2022-07-25T11:02:56.582Z,11
2022-07-25T11:03:56.535Z,10
2022-07-25T11:05:56.460Z,13
2022-07-25T11:06:56.460Z,12
2022-07-25T11:08:20.773Z,11
2022-07-25T11:08:56.485Z,12
2022-07-25T11:09:56.470Z,11
2022-07-25T11:10:56.490Z,11
2022-07-25T11:11:56.473Z,10
2022-07-25T11:13:56.476Z,12
2022-07-25T11:14:56.473Z,11
2022-07-25T11:15:56.512Z,10
2022-07-25T11:16:56.553Z,10
2022-07-25T11:17:57.299Z,12
2022-07-25T11:18:56.475Z,10
2022-07-25T11:19:56.466Z,10
2022-07-25T11:20:56.529Z,11
2022-07-25T11:21:56.468Z,15
2022-07-25T11:23:56.482Z,10
2022-07-25T11:24:56.479Z,12
2022-07-25T11:26:56.479Z,10
2022-07-25T11:27:56.489Z,12
2022-07-25T11:28:56.488Z,14
2022-07-25T11:29:56.473Z,10
2022-07-25T11:30:56.480Z,10
2022-07-25T11:31:56.731Z,11
2022-07-25T11:32:56.479Z,12
2022-07-25T11:34:56.483Z,11
2022-07-25T11:35:56.487Z,12
2022-07-25T11:36:56.534Z,11
2022-07-25T11:37:56.489Z,11
2022-07-25T11:38:56.503Z,10
2022-07-25T11:39:56.506Z,10
2022-07-25T11:40:56.489Z,13
2022-07-25T11:41:56.480Z,11
2022-07-25T11:42:56.492Z,12
2022-07-25T11:43:56.490Z,10
2022-07-25T11:44:56.496Z,10
2022-07-25T11:45:56.564Z,9
2022-07-25T11:47:56.552Z,13
2022-07-25T11:48:56.585Z,10
2022-07-25T11:49:56.496Z,11
2022-07-25T11:50:56.491Z,11
2022-07-25T11:52:56.491Z,11
2022-07-25T11:53:56.496Z,10
2022-07-25T11:55:56.492Z,12
2022-07-25T11:56:56.495Z,12
2022-07-25T11:57:56.489Z,12
2022-07-25T11:58:56.498Z,11
2022-07-25T11:59:56.494Z,10
2022-07-25T12:00:56.505Z,12
2022-07-25T12:02:56.628Z,13
2022-07-25T12:03:56.501Z,10
2022-07-25T12:04:56.502Z,9
2022-07-25T12:05:56.509Z,12
2022-07-25T12:06:56.504Z,10
2022-07-25T12:08:56.502Z,10
2022-07-25T12:09:56.503Z,9
2022-07-25T12:10:56.509Z,13
2022-07-25T12:12:56.505Z,9
2022-07-25T12:13:56.511Z,9
2022-07-25T12:14:56.505Z,12
2022-07-25T12:15:56.516Z,11
2022-07-25T12:16:56.600Z,8
2022-07-25T12:17:56.505Z,9
2022-07-25T12:19:56.502Z,9
2022-07-25T12:20:56.509Z,10
2022-07-25T12:21:56.504Z,12
2022-07-25T12:22:56.530Z,10
2022-07-25T12:23:56.754Z,12
2022-07-25T12:24:56.557Z,9
2022-07-25T12:25:56.519Z,10
2022-07-25T12:27:56.519Z,11
2022-07-25T12:28:56.513Z,12
2022-07-25T12:29:56.515Z,10
2022-07-25T12:30:57.070Z,16
2022-07-25T12:31:56.520Z,11
2022-07-25T12:34:56.532Z,8
2022-07-25T12:35:56.534Z,11
2022-07-25T12:36:56.515Z,11
2022-07-25T12:37:56.524Z,10
2022-07-25T12:38:56.515Z,9
2022-07-25T12:39:56.528Z,11
2022-07-25T12:40:56.520Z,11
2022-07-25T12:41:56.525Z,9
2022-07-25T12:42:56.520Z,9
2022-07-25T12:43:56.528Z,11
2022-07-25T12:44:56.519Z,11
2022-07-25T12:45:56.588Z,10
2022-07-25T12:46:56.560Z,11
2022-07-25T12:48:56.557Z,16
2022-07-25T12:49:56.530Z,10
2022-07-25T12:50:56.528Z,11
2022-07-25T12:51:58.339Z,10
2022-07-25T12:52:56.535Z,10
2022-07-25T12:53:56.528Z,9
2022-07-25T12:54:56.525Z,10
2022-07-25T12:55:56.526Z,11
2022-07-25T12:56:56.520Z,11
2022-07-25T12:57:56.534Z,9
2022-07-25T12:58:56.525Z,10
2022-07-25T12:59:56.543Z,11
2022-07-25T13:01:02.299Z,11
2022-07-25T13:01:56.720Z,10
2022-07-25T13:02:56.602Z,10
2022-07-25T13:03:56.531Z,13
2022-07-25T13:04:56.528Z,11
2022-07-25T13:05:56.537Z,9
2022-07-25T13:07:56.537Z,9
2022-07-25T13:09:56.535Z,11
2022-07-25T13:10:56.536Z,12
2022-07-25T13:11:56.546Z,10
2022-07-25T13:13:56.572Z,12
2022-07-25T13:14:56.530Z,9
2022-07-25T13:15:56.549Z,12
2022-07-25T13:16:56.594Z,10
2022-07-25T13:17:56.540Z,12
2022-07-25T13:18:56.597Z,10
2022-07-25T13:19:56.564Z,11
2022-07-25T13:20:56.547Z,12
2022-07-25T13:21:56.714Z,13
2022-07-25T13:22:56.536Z,9
2022-07-25T13:23:56.538Z,10
2022-07-25T13:24:56.540Z,10
2022-07-25T13:25:56.541Z,14
2022-07-25T13:26:56.553Z,7
2022-07-25T13:27:56.547Z,9
2022-07-25T13:28:59.841Z,9
2022-07-25T13:30:56.544Z,10
2022-07-25T13:31:56.616Z,13
2022-07-25T13:33:56.550Z,9
2022-07-25T13:34:56.539Z,10
2022-07-25T13:35:56.596Z,10
2022-07-25T13:36:56.553Z,9
2022-07-25T13:37:56.555Z,10
2022-07-25T13:38:56.554Z,11
2022-07-25T13:39:56.550Z,10
2022-07-25T13:40:58.980Z,10
2022-07-25T13:41:56.550Z,8
2022-07-25T13:42:56.552Z,10
2022-07-25T13:43:56.548Z,10
2022-07-25T13:44:56.564Z,11
2022-07-25T13:45:56.642Z,9
2022-07-25T13:46:56.551Z,8
2022-07-25T13:48:19.021Z,9
2022-07-25T13:48:56.609Z,8
2022-07-25T13:49:56.547Z,8
2022-07-25T13:51:56.555Z,8
2022-07-25T13:52:56.592Z,8
2022-07-25T13:53:56.565Z,10
2022-07-25T13:55:56.556Z,9
2022-07-25T13:56:56.549Z,12
2022-07-25T13:57:56.606Z,9
2022-07-25T13:58:56.553Z,10
2022-07-25T13:59:56.645Z,10
2022-07-25T14:00:56.618Z,10
2022-07-25T14:01:56.628Z,12
2022-07-25T14:02:56.567Z,8
2022-07-25T14:04:58.783Z,10
2022-07-25T14:05:56.556Z,12
2022-07-25T14:06:56.552Z,10
2022-07-25T14:07:56.565Z,9
2022-07-25T14:08:56.563Z,8
2022-07-25T14:09:56.569Z,9
2022-07-25T14:10:56.567Z,9
2022-07-25T14:12:56.557Z,10
2022-07-25T14:13:56.568Z,7
2022-07-25T14:14:56.628Z,12
2022-07-25T14:16:56.636Z,7
2022-07-25T14:17:56.563Z,10
2022-07-25T14:19:56.588Z,9
2022-07-25T14:20:56.566Z,8
2022-07-25T14:21:56.568Z,8
2022-07-25T14:22:56.566Z,8
2022-07-25T14:23:56.563Z,9
2022-07-25T14:26:56.564Z,10
2022-07-25T14:27:56.567Z,8
2022-07-25T14:28:56.567Z,8
2022-07-25T14:29:56.577Z,10
2022-07-25T14:30:56.578Z,11
2022-07-25T14:31:56.679Z,13
2022-07-25T14:34:56.591Z,9
2022-07-25T14:35:56.574Z,9
2022-07-25T14:36:56.572Z,9
2022-07-25T14:37:56.574Z,9
2022-07-25T14:38:56.572Z,10
2022-07-25T14:39:56.575Z,10
2022-07-25T14:41:56.584Z,8
2022-07-25T14:42:56.583Z,10
2022-07-25T14:43:56.630Z,9
2022-07-25T14:44:56.608Z,9
2022-07-25T14:46:56.712Z,13
2022-07-25T14:47:56.581Z,13
2022-07-25T14:48:56.646Z,14
2022-07-25T14:49:56.583Z,10
2022-07-25T14:50:56.585Z,10
2022-07-25T14:51:56.608Z,11
2022-07-25T14:52:56.576Z,12
2022-07-25T14:54:56.580Z,13
2022-07-25T14:55:56.585Z,10
2022-07-25T14:56:56.593Z,10
2022-07-25T14:57:56.587Z,10
2022-07-25T14:58:56.580Z,12
2022-07-25T14:59:56.581Z,11
2022-07-25T15:00:56.743Z,11
2022-07-25T15:01:56.597Z,10
2022-07-25T15:02:56.581Z,12
2022-07-25T15:03:56.597Z,12
2022-07-25T15:04:56.732Z,10
2022-07-25T15:05:56.637Z,9
2022-07-25T15:07:56.585Z,12
2022-07-25T15:08:56.594Z,10
2022-07-25T15:09:56.590Z,10
2022-07-25T15:10:56.592Z,11
2022-07-25T15:11:56.597Z,10
2022-07-25T15:13:13.982Z,12
2022-07-25T15:13:56.592Z,10
2022-07-25T15:16:56.678Z,12
2022-07-25T15:17:56.660Z,10
2022-07-25T15:19:15.939Z,11
2022-07-25T15:19:56.590Z,10
2022-07-25T15:20:56.596Z,11
2022-07-25T15:21:56.598Z,10
2022-07-25T15:22:56.601Z,11
2022-07-25T15:23:56.595Z,11
2022-07-25T15:25:27.182Z,11
2022-07-25T15:26:04.331Z,10
2022-07-25T15:26:56.594Z,10
2022-07-25T15:28:56.598Z,13
2022-07-25T15:29:56.636Z,11
2022-07-25T15:30:56.602Z,12
2022-07-25T15:31:56.668Z,10
2022-07-25T15:33:56.624Z,13
2022-07-25T15:34:56.672Z,11
2022-07-25T15:36:56.598Z,17
2022-07-25T15:37:56.603Z,11
2022-07-25T15:38:56.615Z,9
2022-07-25T15:39:56.595Z,10
2022-07-25T15:40:56.599Z,10
2022-07-25T15:41:56.681Z,10
2022-07-25T15:42:56.602Z,9
2022-07-25T15:43:56.612Z,13
2022-07-25T15:45:22.083Z,9
2022-07-25T15:45:56.606Z,9
2022-07-25T15:47:56.610Z,10
2022-07-25T15:48:56.681Z,8
2022-07-25T15:49:56.619Z,10
2022-07-25T15:50:56.624Z,9
2022-07-25T15:51:56.602Z,10
2022-07-25T15:52:56.612Z,11
2022-07-25T15:54:56.614Z,9
2022-07-25T15:55:56.605Z,9
2022-07-25T15:56:56.609Z,9
2022-07-25T15:57:56.621Z,9
2022-07-25T15:58:56.663Z,10
2022-07-25T15:59:56.615Z,11
2022-07-25T16:00:56.706Z,8
2022-07-25T16:01:56.626Z,9
2022-07-25T16:02:56.631Z,9
2022-07-25T16:03:56.641Z,10
2022-07-25T16:04:56.610Z,8
2022-07-25T16:06:56.629Z,12
2022-07-25T16:08:56.614Z,10
2022-07-25T16:09:56.618Z,11
2022-07-25T16:10:56.629Z,10
2022-07-25T16:11:56.616Z,9
2022-07-25T16:12:56.626Z,9
2022-07-25T16:13:56.628Z,8
2022-07-25T16:14:56.622Z,11
2022-07-25T16:15:56.784Z,7
2022-07-25T16:16:56.629Z,11
2022-07-25T16:18:01.891Z,8
2022-07-25T16:18:56.623Z,10
2022-07-25T16:19:56.621Z,10
2022-07-25T16:20:56.614Z,10
2022-07-25T16:21:56.630Z,12
2022-07-25T16:22:56.626Z,9
2022-07-25T16:23:56.624Z,10